Pagrindinis puslapis
METAR-TAF:

METAR-TAF

Oro uostai :

Abha, Saudo Arabija

platuma: 18-14N, ilguma: 042-39E, Aukštis: 2090 m

Dabartinis oras

Ataskaita buvo paskelbta 32 minutes, ne 23:00 UTC
Vėjas 4 kt iš Pietvakarių
Temperatūra 19°C
Drėgmė 68%
Slėgis 1022 hPa
Matomumas 10 km arba daugiau
Mažai debesys ne aukštis 2000 ft

METAR: OEAB 232300Z 22004KT 9999 FEW020 19/13 Q1022 NOSIG

Laikas: 02:32 (23:32 UTC)

Prognozė

Ataskaita buvo paskelbta 12 valandos ir 32 minutes, ne 11:00 UTC
Prognozė galioja nuo 23 metu 12 UTC su 24 metu 18 UTC
Vėjas 12 kt iš Vakarų/Pietvakarių
Matomumas 10 km arba daugiau
Išsisklaidę debesys ne aukštis 2000 ft
Laikinai
nuo 23 metu 12 UTC su 23 metu 18 UTC
Matomumas: 6000 m
Mažai debesys ne aukštis 2500 ft, Liūtiniai kamuoliniai debesys.
perkūnija, lietus
Tapsmas
nuo 23 metu 14 UTC su 23 metu 16 UTC
Vėjas 12 kt iš Šiaurės Vakarų
Tapsmas
nuo 23 metu 18 UTC su 23 metu 20 UTC
Vėjas 3 kt nuo kintamojo kryptimis

TAF: OEAB 231100Z 2312/2418 24012KT 9999 SCT020 TEMPO 2312/2318 6000 TSRA FEW025CB BECMG 2314/2316 31012KT BECMG 2318/2320 VRB03KT

Orai ataskaitas ir orų prognozės (METAR, TAF).

turimą stotys yra geltonos ir raudonos taškus žemėlapyje.

Perkelti pele per norėdami pamatyti stoties vardą.

Tada spustelėkite, norėdami matyti oro stebėjimo ir prognozės.

Norėdami pakeisti žemėlapį: spustelėkite ant žalios mygtukų su juodo kryžiaus žemyn,; žalią mygtuką su brūkšneliu, jei norite nutolinti; arba žalių rodyklių gretimoms žemėlapius.


METAR-TAF: